sensor_id;sensor_type;location;lat;lon;timestamp;temperature;humidity
51884;DHT22;37915;53.254;6.598;2023-03-29T00:00:26;5.20;99.90
51884;DHT22;37915;53.254;6.598;2023-03-29T00:02:52;5.20;99.90
51884;DHT22;37915;53.254;6.598;2023-03-29T00:05:21;5.10;99.90
51884;DHT22;37915;53.254;6.598;2023-03-29T00:07:48;5.10;99.90
51884;DHT22;37915;53.254;6.598;2023-03-29T00:10:29;5.10;99.90
51884;DHT22;37915;53.254;6.598;2023-03-29T00:12:56;5.10;99.90
51884;DHT22;37915;53.254;6.598;2023-03-29T00:15:22;5.30;99.90
51884;DHT22;37915;53.254;6.598;2023-03-29T00:17:48;5.10;99.90
51884;DHT22;37915;53.254;6.598;2023-03-29T00:20:14;5.10;99.90
51884;DHT22;37915;53.254;6.598;2023-03-29T00:22:40;5.10;99.90
51884;DHT22;37915;53.254;6.598;2023-03-29T00:25:08;5.10;99.90
51884;DHT22;37915;53.254;6.598;2023-03-29T00:27:34;5.10;99.90
51884;DHT22;37915;53.254;6.598;2023-03-29T00:30:00;5.10;99.90
51884;DHT22;37915;53.254;6.598;2023-03-29T00:32:29;5.40;99.90
51884;DHT22;37915;53.254;6.598;2023-03-29T00:34:55;5.10;99.90
51884;DHT22;37915;53.254;6.598;2023-03-29T00:37:21;5.10;99.90
51884;DHT22;37915;53.254;6.598;2023-03-29T00:39:51;5.20;99.90
51884;DHT22;37915;53.254;6.598;2023-03-29T00:42:17;5.20;99.90
51884;DHT22;37915;53.254;6.598;2023-03-29T00:45:02;5.10;99.90
51884;DHT22;37915;53.254;6.598;2023-03-29T00:47:40;5.10;99.90
51884;DHT22;37915;53.254;6.598;2023-03-29T00:53:06;5.10;99.90
51884;DHT22;37915;53.254;6.598;2023-03-29T00:55:37;5.10;99.90
51884;DHT22;37915;53.254;6.598;2023-03-29T00:58:08;5.10;99.90
51884;DHT22;37915;53.254;6.598;2023-03-29T01:00:49;5.10;99.90
51884;DHT22;37915;53.254;6.598;2023-03-29T01:03:19;5.20;99.90
51884;DHT22;37915;53.254;6.598;2023-03-29T01:05:52;5.20;99.90
51884;DHT22;37915;53.254;6.598;2023-03-29T01:08:28;5.10;99.90
51884;DHT22;37915;53.254;6.598;2023-03-29T01:11:13;5.10;99.90
51884;DHT22;37915;53.254;6.598;2023-03-29T01:13:58;5.30;99.90
51884;DHT22;37915;53.254;6.598;2023-03-29T01:16:29;5.10;99.90
51884;DHT22;37915;53.254;6.598;2023-03-29T01:18:55;5.10;99.90
51884;DHT22;37915;53.254;6.598;2023-03-29T01:27:13;5.10;99.90
51884;DHT22;37915;53.254;6.598;2023-03-29T01:30:10;5.10;99.90
51884;DHT22;37915;53.254;6.598;2023-03-29T01:32:50;5.10;99.90
51884;DHT22;37915;53.254;6.598;2023-03-29T01:35:30;5.20;99.90
51884;DHT22;37915;53.254;6.598;2023-03-29T01:38:13;5.10;99.90
51884;DHT22;37915;53.254;6.598;2023-03-29T01:40:40;5.10;99.90
51884;DHT22;37915;53.254;6.598;2023-03-29T01:43:55;5.10;99.90
51884;DHT22;37915;53.254;6.598;2023-03-29T01:46:39;5.10;99.90
51884;DHT22;37915;53.254;6.598;2023-03-29T01:49:22;5.10;99.90
51884;DHT22;37915;53.254;6.598;2023-03-29T01:52:00;5.10;99.90
51884;DHT22;37915;53.254;6.598;2023-03-29T01:54:32;5.10;99.90
51884;DHT22;37915;53.254;6.598;2023-03-29T01:57:00;5.10;99.90
51884;DHT22;37915;53.254;6.598;2023-03-29T01:59:32;5.10;99.90
51884;DHT22;37915;53.254;6.598;2023-03-29T02:02:01;5.10;99.90
51884;DHT22;37915;53.254;6.598;2023-03-29T02:04:36;5.20;99.90
51884;DHT22;37915;53.254;6.598;2023-03-29T02:07:05;5.20;99.90
51884;DHT22;37915;53.254;6.598;2023-03-29T02:09:34;5.30;99.90
51884;DHT22;37915;53.254;6.598;2023-03-29T02:12:01;5.20;99.90
51884;DHT22;37915;53.254;6.598;2023-03-29T02:14:28;5.20;99.90
51884;DHT22;37915;53.254;6.598;2023-03-29T02:16:55;5.10;99.90
51884;DHT22;37915;53.254;6.598;2023-03-29T02:19:21;5.60;99.90
51884;DHT22;37915;53.254;6.598;2023-03-29T02:24:21;5.20;99.90
51884;DHT22;37915;53.254;6.598;2023-03-29T02:26:48;5.10;99.90
51884;DHT22;37915;53.254;6.598;2023-03-29T02:29:14;5.10;99.90
51884;DHT22;37915;53.254;6.598;2023-03-29T02:31:44;5.10;99.90
51884;DHT22;37915;53.254;6.598;2023-03-29T02:34:29;5.10;99.90
51884;DHT22;37915;53.254;6.598;2023-03-29T02:37:03;5.10;99.90
51884;DHT22;37915;53.254;6.598;2023-03-29T02:39:32;5.40;99.90
51884;DHT22;37915;53.254;6.598;2023-03-29T02:41:59;5.10;99.90
51884;DHT22;37915;53.254;6.598;2023-03-29T02:44:28;5.30;99.90
51884;DHT22;37915;53.254;6.598;2023-03-29T02:47:01;5.10;99.90
51884;DHT22;37915;53.254;6.598;2023-03-29T02:49:27;5.10;99.90
51884;DHT22;37915;53.254;6.598;2023-03-29T02:51:56;5.10;99.90
51884;DHT22;37915;53.254;6.598;2023-03-29T02:54:26;5.20;99.90
51884;DHT22;37915;53.254;6.598;2023-03-29T02:57:00;5.20;99.90
51884;DHT22;37915;53.254;6.598;2023-03-29T02:59:28;5.10;99.90
51884;DHT22;37915;53.254;6.598;2023-03-29T03:01:58;5.20;99.90
51884;DHT22;37915;53.254;6.598;2023-03-29T03:04:24;5.50;99.90
51884;DHT22;37915;53.254;6.598;2023-03-29T03:06:50;5.30;99.90
51884;DHT22;37915;53.254;6.598;2023-03-29T03:09:15;5.20;99.90
51884;DHT22;37915;53.254;6.598;2023-03-29T03:11:41;5.20;99.90
51884;DHT22;37915;53.254;6.598;2023-03-29T03:14:07;5.20;99.90
51884;DHT22;37915;53.254;6.598;2023-03-29T03:16:32;5.20;99.90
51884;DHT22;37915;53.254;6.598;2023-03-29T03:18:58;5.20;99.90
51884;DHT22;37915;53.254;6.598;2023-03-29T03:21:25;5.20;99.90
51884;DHT22;37915;53.254;6.598;2023-03-29T03:23:53;5.20;99.90
51884;DHT22;37915;53.254;6.598;2023-03-29T03:26:19;5.30;99.90
51884;DHT22;37915;53.254;6.598;2023-03-29T03:28:45;5.20;99.90
51884;DHT22;37915;53.254;6.598;2023-03-29T03:31:11;5.20;99.90
51884;DHT22;37915;53.254;6.598;2023-03-29T03:33:39;5.20;99.90
51884;DHT22;37915;53.254;6.598;2023-03-29T03:36:07;5.20;99.90
51884;DHT22;37915;53.254;6.598;2023-03-29T03:38:33;5.20;99.90
51884;DHT22;37915;53.254;6.598;2023-03-29T03:40:59;5.20;99.90
51884;DHT22;37915;53.254;6.598;2023-03-29T03:43:26;5.20;99.90
51884;DHT22;37915;53.254;6.598;2023-03-29T03:45:53;5.20;99.90
51884;DHT22;37915;53.254;6.598;2023-03-29T03:48:19;5.20;99.90
51884;DHT22;37915;53.254;6.598;2023-03-29T03:50:56;5.30;99.90
51884;DHT22;37915;53.254;6.598;2023-03-29T03:53:23;5.20;99.90
51884;DHT22;37915;53.254;6.598;2023-03-29T03:55:51;5.50;99.90
51884;DHT22;37915;53.254;6.598;2023-03-29T03:58:18;5.20;99.90
51884;DHT22;37915;53.254;6.598;2023-03-29T04:00:46;5.40;99.90
51884;DHT22;37915;53.254;6.598;2023-03-29T04:03:12;5.20;99.90
51884;DHT22;37915;53.254;6.598;2023-03-29T04:05:39;5.20;99.90
51884;DHT22;37915;53.254;6.598;2023-03-29T04:08:06;5.20;99.90
51884;DHT22;37915;53.254;6.598;2023-03-29T04:10:33;5.20;99.90
51884;DHT22;37915;53.254;6.598;2023-03-29T04:13:00;5.20;99.90
51884;DHT22;37915;53.254;6.598;2023-03-29T04:15:30;5.20;99.90
51884;DHT22;37915;53.254;6.598;2023-03-29T04:17:57;5.30;99.90
51884;DHT22;37915;53.254;6.598;2023-03-29T04:20:23;5.30;99.90
51884;DHT22;37915;53.254;6.598;2023-03-29T04:22:50;5.30;99.90
51884;DHT22;37915;53.254;6.598;2023-03-29T04:25:16;5.30;99.90
51884;DHT22;37915;53.254;6.598;2023-03-29T04:27:42;5.30;99.90
51884;DHT22;37915;53.254;6.598;2023-03-29T04:30:09;5.70;99.90
51884;DHT22;37915;53.254;6.598;2023-03-29T04:32:35;5.30;99.90
51884;DHT22;37915;53.254;6.598;2023-03-29T04:35:01;5.30;99.90
51884;DHT22;37915;53.254;6.598;2023-03-29T04:37:29;5.30;99.90
51884;DHT22;37915;53.254;6.598;2023-03-29T04:39:56;5.30;99.90
51884;DHT22;37915;53.254;6.598;2023-03-29T04:42:25;5.50;99.90
51884;DHT22;37915;53.254;6.598;2023-03-29T04:44:51;5.40;99.90
51884;DHT22;37915;53.254;6.598;2023-03-29T04:47:18;5.30;99.90
51884;DHT22;37915;53.254;6.598;2023-03-29T04:49:44;5.50;99.90
51884;DHT22;37915;53.254;6.598;2023-03-29T04:52:10;5.40;99.90
51884;DHT22;37915;53.254;6.598;2023-03-29T04:54:36;5.60;99.90
51884;DHT22;37915;53.254;6.598;2023-03-29T04:57:03;5.30;99.90
51884;DHT22;37915;53.254;6.598;2023-03-29T04:59:29;5.40;99.90
51884;DHT22;37915;53.254;6.598;2023-03-29T05:01:55;5.40;99.90
51884;DHT22;37915;53.254;6.598;2023-03-29T05:04:21;5.40;99.90
51884;DHT22;37915;53.254;6.598;2023-03-29T05:06:47;5.40;99.90
51884;DHT22;37915;53.254;6.598;2023-03-29T05:09:13;5.60;99.90
51884;DHT22;37915;53.254;6.598;2023-03-29T05:11:39;5.40;99.90
51884;DHT22;37915;53.254;6.598;2023-03-29T05:14:04;5.40;99.90
51884;DHT22;37915;53.254;6.598;2023-03-29T05:16:32;5.40;99.90
51884;DHT22;37915;53.254;6.598;2023-03-29T05:18:59;5.40;99.90
51884;DHT22;37915;53.254;6.598;2023-03-29T05:21:26;5.40;99.90
51884;DHT22;37915;53.254;6.598;2023-03-29T05:23:53;5.40;99.90
51884;DHT22;37915;53.254;6.598;2023-03-29T05:26:20;5.50;99.90
51884;DHT22;37915;53.254;6.598;2023-03-29T05:28:47;5.50;99.90
51884;DHT22;37915;53.254;6.598;2023-03-29T05:31:13;5.50;99.90
51884;DHT22;37915;53.254;6.598;2023-03-29T05:33:39;5.50;99.90
51884;DHT22;37915;53.254;6.598;2023-03-29T05:36:08;5.50;99.90
51884;DHT22;37915;53.254;6.598;2023-03-29T05:38:35;5.50;99.90
51884;DHT22;37915;53.254;6.598;2023-03-29T05:41:01;5.60;99.90
51884;DHT22;37915;53.254;6.598;2023-03-29T05:43:27;5.60;99.90
51884;DHT22;37915;53.254;6.598;2023-03-29T05:45:54;5.60;99.90
51884;DHT22;37915;53.254;6.598;2023-03-29T05:48:21;5.60;99.90
51884;DHT22;37915;53.254;6.598;2023-03-29T05:50:52;5.80;99.90
51884;DHT22;37915;53.254;6.598;2023-03-29T05:53:20;5.70;99.90
51884;DHT22;37915;53.254;6.598;2023-03-29T05:55:46;5.60;99.90
51884;DHT22;37915;53.254;6.598;2023-03-29T05:58:12;5.60;99.90
51884;DHT22;37915;53.254;6.598;2023-03-29T06:00:41;5.60;99.90
51884;DHT22;37915;53.254;6.598;2023-03-29T06:03:14;5.70;99.90
51884;DHT22;37915;53.254;6.598;2023-03-29T06:05:44;5.60;99.90
51884;DHT22;37915;53.254;6.598;2023-03-29T06:08:11;5.60;99.90
51884;DHT22;37915;53.254;6.598;2023-03-29T06:10:37;5.60;99.90
51884;DHT22;37915;53.254;6.598;2023-03-29T06:13:02;5.70;99.90
51884;DHT22;37915;53.254;6.598;2023-03-29T06:15:28;5.70;99.90
51884;DHT22;37915;53.254;6.598;2023-03-29T06:17:54;5.70;99.90
51884;DHT22;37915;53.254;6.598;2023-03-29T06:20:20;5.70;99.90
51884;DHT22;37915;53.254;6.598;2023-03-29T06:22:46;5.70;99.90
51884;DHT22;37915;53.254;6.598;2023-03-29T06:25:13;5.80;99.90
51884;DHT22;37915;53.254;6.598;2023-03-29T06:27:40;5.80;99.90
51884;DHT22;37915;53.254;6.598;2023-03-29T06:30:06;5.80;99.90
51884;DHT22;37915;53.254;6.598;2023-03-29T06:32:35;5.80;99.90
51884;DHT22;37915;53.254;6.598;2023-03-29T06:35:01;6.00;99.90
51884;DHT22;37915;53.254;6.598;2023-03-29T06:37:29;5.80;99.90
51884;DHT22;37915;53.254;6.598;2023-03-29T06:39:56;5.80;99.90
51884;DHT22;37915;53.254;6.598;2023-03-29T06:42:22;6.00;99.90
51884;DHT22;37915;53.254;6.598;2023-03-29T06:44:48;5.90;99.90
51884;DHT22;37915;53.254;6.598;2023-03-29T06:47:15;5.90;99.90
51884;DHT22;37915;53.254;6.598;2023-03-29T06:49:42;6.00;99.90
51884;DHT22;37915;53.254;6.598;2023-03-29T06:52:08;6.00;99.90
51884;DHT22;37915;53.254;6.598;2023-03-29T06:54:34;6.00;99.90
51884;DHT22;37915;53.254;6.598;2023-03-29T06:57:00;6.00;99.90
51884;DHT22;37915;53.254;6.598;2023-03-29T06:59:27;6.00;99.90
51884;DHT22;37915;53.254;6.598;2023-03-29T07:01:53;6.00;99.90
51884;DHT22;37915;53.254;6.598;2023-03-29T07:04:19;6.00;99.90
51884;DHT22;37915;53.254;6.598;2023-03-29T07:06:47;6.00;99.90
51884;DHT22;37915;53.254;6.598;2023-03-29T07:09:15;6.10;99.90
51884;DHT22;37915;53.254;6.598;2023-03-29T07:11:43;6.10;99.90
51884;DHT22;37915;53.254;6.598;2023-03-29T07:14:09;6.20;99.90
51884;DHT22;37915;53.254;6.598;2023-03-29T07:16:35;6.20;99.90
51884;DHT22;37915;53.254;6.598;2023-03-29T07:19:02;6.30;99.90
51884;DHT22;37915;53.254;6.598;2023-03-29T07:21:29;6.30;99.90
51884;DHT22;37915;53.254;6.598;2023-03-29T07:23:55;6.40;99.90
51884;DHT22;37915;53.254;6.598;2023-03-29T07:26:23;6.40;99.90
51884;DHT22;37915;53.254;6.598;2023-03-29T07:28:50;6.60;99.90
51884;DHT22;37915;53.254;6.598;2023-03-29T07:31:16;6.60;99.90
51884;DHT22;37915;53.254;6.598;2023-03-29T07:33:42;6.70;99.90
51884;DHT22;37915;53.254;6.598;2023-03-29T07:36:09;6.90;99.90
51884;DHT22;37915;53.254;6.598;2023-03-29T07:38:36;6.80;99.90
51884;DHT22;37915;53.254;6.598;2023-03-29T07:41:04;6.90;99.90
51884;DHT22;37915;53.254;6.598;2023-03-29T07:43:30;6.90;99.90
51884;DHT22;37915;53.254;6.598;2023-03-29T07:46:00;6.90;99.90
51884;DHT22;37915;53.254;6.598;2023-03-29T07:48:26;6.90;99.90
51884;DHT22;37915;53.254;6.598;2023-03-29T07:50:51;6.90;99.90
51884;DHT22;37915;53.254;6.598;2023-03-29T07:53:17;6.90;99.90
51884;DHT22;37915;53.254;6.598;2023-03-29T07:55:43;6.90;99.90
51884;DHT22;37915;53.254;6.598;2023-03-29T07:58:12;7.00;99.90
51884;DHT22;37915;53.254;6.598;2023-03-29T08:00:39;6.90;99.90
51884;DHT22;37915;53.254;6.598;2023-03-29T08:03:06;6.90;99.90
51884;DHT22;37915;53.254;6.598;2023-03-29T08:05:32;7.00;99.90
51884;DHT22;37915;53.254;6.598;2023-03-29T08:07:58;7.00;99.90
51884;DHT22;37915;53.254;6.598;2023-03-29T08:10:24;7.10;99.90
51884;DHT22;37915;53.254;6.598;2023-03-29T08:12:51;7.20;99.90
51884;DHT22;37915;53.254;6.598;2023-03-29T08:15:17;7.20;99.90
51884;DHT22;37915;53.254;6.598;2023-03-29T08:17:43;7.30;99.90
51884;DHT22;37915;53.254;6.598;2023-03-29T08:20:11;7.50;99.90
51884;DHT22;37915;53.254;6.598;2023-03-29T08:22:38;7.50;99.90
51884;DHT22;37915;53.254;6.598;2023-03-29T08:25:04;7.60;99.90
51884;DHT22;37915;53.254;6.598;2023-03-29T08:27:31;7.60;99.90
51884;DHT22;37915;53.254;6.598;2023-03-29T08:29:57;7.70;99.90
51884;DHT22;37915;53.254;6.598;2023-03-29T08:32:23;7.70;99.90
51884;DHT22;37915;53.254;6.598;2023-03-29T08:34:49;7.70;99.90
51884;DHT22;37915;53.254;6.598;2023-03-29T08:37:14;7.80;99.90
51884;DHT22;37915;53.254;6.598;2023-03-29T08:39:41;7.90;99.90
51884;DHT22;37915;53.254;6.598;2023-03-29T08:44:56;8.10;99.90
51884;DHT22;37915;53.254;6.598;2023-03-29T08:50:09;8.20;99.90
51884;DHT22;37915;53.254;6.598;2023-03-29T08:52:42;8.30;99.90
51884;DHT22;37915;53.254;6.598;2023-03-29T08:55:38;8.20;99.90
51884;DHT22;37915;53.254;6.598;2023-03-29T08:58:07;8.40;99.90
51884;DHT22;37915;53.254;6.598;2023-03-29T09:00:51;8.50;99.90
51884;DHT22;37915;53.254;6.598;2023-03-29T09:03:22;8.60;99.90
51884;DHT22;37915;53.254;6.598;2023-03-29T09:05:52;8.60;99.90
51884;DHT22;37915;53.254;6.598;2023-03-29T09:08:20;8.70;99.90
51884;DHT22;37915;53.254;6.598;2023-03-29T09:25:23;9.00;99.90
51884;DHT22;37915;53.254;6.598;2023-03-29T09:30:41;9.20;99.90
51884;DHT22;37915;53.254;6.598;2023-03-29T09:38:56;9.40;99.90
51884;DHT22;37915;53.254;6.598;2023-03-29T09:41:35;9.40;99.90
51884;DHT22;37915;53.254;6.598;2023-03-29T09:44:10;9.40;99.90
51884;DHT22;37915;53.254;6.598;2023-03-29T09:49:05;9.40;99.90
51884;DHT22;37915;53.254;6.598;2023-03-29T09:51:36;9.40;99.90
51884;DHT22;37915;53.254;6.598;2023-03-29T09:54:03;9.40;99.90
51884;DHT22;37915;53.254;6.598;2023-03-29T09:56:29;9.50;99.90
51884;DHT22;37915;53.254;6.598;2023-03-29T09:58:54;9.50;99.90
51884;DHT22;37915;53.254;6.598;2023-03-29T10:01:20;9.60;99.90
51884;DHT22;37915;53.254;6.598;2023-03-29T10:03:49;9.60;99.90
51884;DHT22;37915;53.254;6.598;2023-03-29T10:06:16;9.60;99.90
51884;DHT22;37915;53.254;6.598;2023-03-29T10:08:50;9.70;99.90
51884;DHT22;37915;53.254;6.598;2023-03-29T10:11:34;9.70;99.90
51884;DHT22;37915;53.254;6.598;2023-03-29T10:14:11;9.70;99.90
51884;DHT22;37915;53.254;6.598;2023-03-29T10:16:40;9.70;99.90
51884;DHT22;37915;53.254;6.598;2023-03-29T10:19:28;9.70;99.90
51884;DHT22;37915;53.254;6.598;2023-03-29T10:22:06;9.70;99.90
51884;DHT22;37915;53.254;6.598;2023-03-29T10:24:32;9.80;99.90
51884;DHT22;37915;53.254;6.598;2023-03-29T10:27:01;9.80;99.90
51884;DHT22;37915;53.254;6.598;2023-03-29T10:29:34;9.80;99.90
51884;DHT22;37915;53.254;6.598;2023-03-29T10:32:01;9.80;99.90
51884;DHT22;37915;53.254;6.598;2023-03-29T10:34:26;9.80;99.90
51884;DHT22;37915;53.254;6.598;2023-03-29T10:37:01;9.80;99.90
51884;DHT22;37915;53.254;6.598;2023-03-29T10:39:31;9.90;99.90
51884;DHT22;37915;53.254;6.598;2023-03-29T10:41:58;9.90;99.90
51884;DHT22;37915;53.254;6.598;2023-03-29T10:44:34;10.00;99.90
51884;DHT22;37915;53.254;6.598;2023-03-29T10:47:15;10.10;99.90
51884;DHT22;37915;53.254;6.598;2023-03-29T10:49:49;10.10;99.90
51884;DHT22;37915;53.254;6.598;2023-03-29T10:52:17;10.20;99.90
51884;DHT22;37915;53.254;6.598;2023-03-29T10:54:44;10.20;99.90
51884;DHT22;37915;53.254;6.598;2023-03-29T10:57:13;10.30;99.90
51884;DHT22;37915;53.254;6.598;2023-03-29T11:02:53;10.50;99.90
51884;DHT22;37915;53.254;6.598;2023-03-29T11:07:58;10.70;99.90
51884;DHT22;37915;53.254;6.598;2023-03-29T11:16:11;11.00;99.90
51884;DHT22;37915;53.254;6.598;2023-03-29T11:30:05;11.50;99.90
51884;DHT22;37915;53.254;6.598;2023-03-29T11:35:59;11.60;99.90
51884;DHT22;37915;53.254;6.598;2023-03-29T11:38:15;11.60;99.90
51884;DHT22;37915;53.254;6.598;2023-03-29T11:40:56;11.70;99.90
51884;DHT22;37915;53.254;6.598;2023-03-29T11:46:30;11.80;99.90
51884;DHT22;37915;53.254;6.598;2023-03-29T11:49:05;11.90;99.90
51884;DHT22;37915;53.254;6.598;2023-03-29T11:51:46;11.90;99.90
51884;DHT22;37915;53.254;6.598;2023-03-29T11:54:46;12.10;99.90
51884;DHT22;37915;53.254;6.598;2023-03-29T12:00:17;12.10;99.90
51884;DHT22;37915;53.254;6.598;2023-03-29T12:03:10;12.10;99.90
51884;DHT22;37915;53.254;6.598;2023-03-29T12:05:50;12.10;99.90
51884;DHT22;37915;53.254;6.598;2023-03-29T12:08:40;12.10;99.90
51884;DHT22;37915;53.254;6.598;2023-03-29T12:16:36;12.20;99.90
51884;DHT22;37915;53.254;6.598;2023-03-29T12:19:07;12.20;99.90
51884;DHT22;37915;53.254;6.598;2023-03-29T12:21:39;12.20;99.90
51884;DHT22;37915;53.254;6.598;2023-03-29T12:24:10;12.30;99.90
51884;DHT22;37915;53.254;6.598;2023-03-29T12:38:19;12.80;99.90
51884;DHT22;37915;53.254;6.598;2023-03-29T12:40:52;12.90;99.90
51884;DHT22;37915;53.254;6.598;2023-03-29T12:43:29;13.00;99.90
51884;DHT22;37915;53.254;6.598;2023-03-29T12:46:17;13.00;99.90
51884;DHT22;37915;53.254;6.598;2023-03-29T12:48:45;13.00;99.90
51884;DHT22;37915;53.254;6.598;2023-03-29T12:51:18;13.00;99.90
51884;DHT22;37915;53.254;6.598;2023-03-29T12:53:53;12.90;99.90
51884;DHT22;37915;53.254;6.598;2023-03-29T12:56:35;12.90;99.90
51884;DHT22;37915;53.254;6.598;2023-03-29T12:59:16;13.00;99.90
51884;DHT22;37915;53.254;6.598;2023-03-29T13:02:00;13.00;99.90
51884;DHT22;37915;53.254;6.598;2023-03-29T13:04:37;13.10;99.90
51884;DHT22;37915;53.254;6.598;2023-03-29T13:10:00;13.00;99.90
51884;DHT22;37915;53.254;6.598;2023-03-29T13:12:35;13.00;99.90
51884;DHT22;37915;53.254;6.598;2023-03-29T13:15:21;13.00;99.90
51884;DHT22;37915;53.254;6.598;2023-03-29T13:23:47;13.00;99.90
51884;DHT22;37915;53.254;6.598;2023-03-29T13:26:25;13.00;99.90
51884;DHT22;37915;53.254;6.598;2023-03-29T13:39:56;13.00;99.90
51884;DHT22;37915;53.254;6.598;2023-03-29T13:45:21;12.80;99.90
51884;DHT22;37915;53.254;6.598;2023-03-29T13:47:47;12.80;99.90
51884;DHT22;37915;53.254;6.598;2023-03-29T13:50:19;12.90;99.90
51884;DHT22;37915;53.254;6.598;2023-03-29T13:52:57;12.90;99.90
51884;DHT22;37915;53.254;6.598;2023-03-29T13:55:28;12.90;99.90
51884;DHT22;37915;53.254;6.598;2023-03-29T13:58:05;13.00;99.90
51884;DHT22;37915;53.254;6.598;2023-03-29T14:00:43;13.00;99.90
51884;DHT22;37915;53.254;6.598;2023-03-29T14:03:15;13.10;99.90
51884;DHT22;37915;53.254;6.598;2023-03-29T14:05:47;13.10;99.90
51884;DHT22;37915;53.254;6.598;2023-03-29T14:10:44;13.10;99.90
51884;DHT22;37915;53.254;6.598;2023-03-29T14:13:16;13.20;99.90
51884;DHT22;37915;53.254;6.598;2023-03-29T14:15:44;13.20;99.90
51884;DHT22;37915;53.254;6.598;2023-03-29T14:18:12;13.20;99.90
51884;DHT22;37915;53.254;6.598;2023-03-29T14:20:43;13.30;99.90
51884;DHT22;37915;53.254;6.598;2023-03-29T14:23:11;13.30;99.90
51884;DHT22;37915;53.254;6.598;2023-03-29T14:25:38;13.40;99.90
51884;DHT22;37915;53.254;6.598;2023-03-29T14:28:25;13.40;99.90
51884;DHT22;37915;53.254;6.598;2023-03-29T14:30:52;13.50;99.90
51884;DHT22;37915;53.254;6.598;2023-03-29T14:33:29;13.50;99.90
51884;DHT22;37915;53.254;6.598;2023-03-29T14:35:58;13.50;99.90
51884;DHT22;37915;53.254;6.598;2023-03-29T14:38:25;13.40;99.90
51884;DHT22;37915;53.254;6.598;2023-03-29T14:40:53;13.50;99.90
51884;DHT22;37915;53.254;6.598;2023-03-29T14:43:20;13.60;99.90
51884;DHT22;37915;53.254;6.598;2023-03-29T14:45:52;13.60;99.90
51884;DHT22;37915;53.254;6.598;2023-03-29T14:48:18;13.70;99.90
51884;DHT22;37915;53.254;6.598;2023-03-29T14:50:45;13.80;99.90
51884;DHT22;37915;53.254;6.598;2023-03-29T14:53:19;13.80;99.90
51884;DHT22;37915;53.254;6.598;2023-03-29T14:55:49;13.80;99.90
51884;DHT22;37915;53.254;6.598;2023-03-29T14:58:32;13.70;99.90
51884;DHT22;37915;53.254;6.598;2023-03-29T15:01:04;13.60;99.90
51884;DHT22;37915;53.254;6.598;2023-03-29T15:03:41;13.60;99.90
51884;DHT22;37915;53.254;6.598;2023-03-29T15:06:08;13.60;99.90
51884;DHT22;37915;53.254;6.598;2023-03-29T15:08:37;13.60;99.90
51884;DHT22;37915;53.254;6.598;2023-03-29T15:11:17;13.60;99.90
51884;DHT22;37915;53.254;6.598;2023-03-29T15:13:45;13.60;99.90
51884;DHT22;37915;53.254;6.598;2023-03-29T15:16:18;13.60;99.90
51884;DHT22;37915;53.254;6.598;2023-03-29T15:18:45;13.70;99.90
51884;DHT22;37915;53.254;6.598;2023-03-29T15:21:14;13.70;99.90
51884;DHT22;37915;53.254;6.598;2023-03-29T15:23:54;13.70;99.90
51884;DHT22;37915;53.254;6.598;2023-03-29T15:26:23;13.80;99.90
51884;DHT22;37915;53.254;6.598;2023-03-29T15:29:01;13.70;99.90
51884;DHT22;37915;53.254;6.598;2023-03-29T15:31:34;13.70;99.90
51884;DHT22;37915;53.254;6.598;2023-03-29T15:34:12;13.70;99.90
51884;DHT22;37915;53.254;6.598;2023-03-29T15:36:40;13.70;99.90
51884;DHT22;37915;53.254;6.598;2023-03-29T15:39:14;13.60;99.90
51884;DHT22;37915;53.254;6.598;2023-03-29T15:41:41;13.60;99.90
51884;DHT22;37915;53.254;6.598;2023-03-29T15:44:07;13.50;99.90
51884;DHT22;37915;53.254;6.598;2023-03-29T15:46:34;13.40;99.90
51884;DHT22;37915;53.254;6.598;2023-03-29T15:48:59;13.40;99.90
51884;DHT22;37915;53.254;6.598;2023-03-29T15:51:25;13.40;99.90
51884;DHT22;37915;53.254;6.598;2023-03-29T15:53:51;13.30;99.90
51884;DHT22;37915;53.254;6.598;2023-03-29T15:56:18;13.30;99.90
51884;DHT22;37915;53.254;6.598;2023-03-29T15:58:45;13.30;99.90
51884;DHT22;37915;53.254;6.598;2023-03-29T16:03:48;13.20;99.90
51884;DHT22;37915;53.254;6.598;2023-03-29T16:06:15;13.20;99.90
51884;DHT22;37915;53.254;6.598;2023-03-29T16:08:42;13.10;99.90
51884;DHT22;37915;53.254;6.598;2023-03-29T16:11:08;13.00;99.90
51884;DHT22;37915;53.254;6.598;2023-03-29T16:13:33;13.00;99.90
51884;DHT22;37915;53.254;6.598;2023-03-29T16:15:59;13.00;99.90
51884;DHT22;37915;53.254;6.598;2023-03-29T16:18:25;12.90;99.90
51884;DHT22;37915;53.254;6.598;2023-03-29T16:20:50;12.90;99.90
51884;DHT22;37915;53.254;6.598;2023-03-29T16:23:16;12.80;99.90
51884;DHT22;37915;53.254;6.598;2023-03-29T16:25:42;12.80;99.90
51884;DHT22;37915;53.254;6.598;2023-03-29T16:28:07;12.80;99.90
51884;DHT22;37915;53.254;6.598;2023-03-29T16:30:35;12.80;99.90
51884;DHT22;37915;53.254;6.598;2023-03-29T16:33:02;12.80;99.90
51884;DHT22;37915;53.254;6.598;2023-03-29T16:35:34;12.70;99.90
51884;DHT22;37915;53.254;6.598;2023-03-29T16:38:00;12.70;99.90
51884;DHT22;37915;53.254;6.598;2023-03-29T16:40:26;12.70;99.90
51884;DHT22;37915;53.254;6.598;2023-03-29T16:42:52;12.60;99.90
51884;DHT22;37915;53.254;6.598;2023-03-29T16:45:18;12.60;99.90
51884;DHT22;37915;53.254;6.598;2023-03-29T16:47:44;12.60;99.90
51884;DHT22;37915;53.254;6.598;2023-03-29T16:50:11;12.60;99.90
51884;DHT22;37915;53.254;6.598;2023-03-29T16:52:37;12.50;99.90
51884;DHT22;37915;53.254;6.598;2023-03-29T16:55:04;12.50;99.90
51884;DHT22;37915;53.254;6.598;2023-03-29T16:57:30;12.50;99.90
51884;DHT22;37915;53.254;6.598;2023-03-29T16:59:56;12.40;99.90
51884;DHT22;37915;53.254;6.598;2023-03-29T17:02:22;12.40;99.90
51884;DHT22;37915;53.254;6.598;2023-03-29T17:04:47;12.30;99.90
51884;DHT22;37915;53.254;6.598;2023-03-29T17:07:13;12.30;99.90
51884;DHT22;37915;53.254;6.598;2023-03-29T17:09:39;12.20;99.90
51884;DHT22;37915;53.254;6.598;2023-03-29T17:12:05;12.10;99.90
51884;DHT22;37915;53.254;6.598;2023-03-29T17:14:31;12.10;99.90
51884;DHT22;37915;53.254;6.598;2023-03-29T17:16:56;12.00;99.90
51884;DHT22;37915;53.254;6.598;2023-03-29T17:19:22;12.00;99.90
51884;DHT22;37915;53.254;6.598;2023-03-29T17:21:48;11.90;99.90
51884;DHT22;37915;53.254;6.598;2023-03-29T17:24:14;11.40;99.90
51884;DHT22;37915;53.254;6.598;2023-03-29T17:26:39;11.80;99.90
51884;DHT22;37915;53.254;6.598;2023-03-29T17:29:05;11.80;99.90
51884;DHT22;37915;53.254;6.598;2023-03-29T17:31:31;11.80;99.90
51884;DHT22;37915;53.254;6.598;2023-03-29T17:33:59;11.70;99.90
51884;DHT22;37915;53.254;6.598;2023-03-29T17:36:25;11.70;99.90
51884;DHT22;37915;53.254;6.598;2023-03-29T17:38:53;11.60;99.90
51884;DHT22;37915;53.254;6.598;2023-03-29T17:41:19;11.60;99.90
51884;DHT22;37915;53.254;6.598;2023-03-29T17:43:46;11.60;99.90
51884;DHT22;37915;53.254;6.598;2023-03-29T17:46:12;11.50;99.90
51884;DHT22;37915;53.254;6.598;2023-03-29T17:48:38;11.40;99.90
51884;DHT22;37915;53.254;6.598;2023-03-29T17:51:04;11.40;99.90
51884;DHT22;37915;53.254;6.598;2023-03-29T17:53:30;11.40;99.90